Wetterdaten: Woche 10.10.16 - 16.10.16 (KW41)
Datum Zeit Temp. A. Feuchte A. Luftdruck Regen Wind Richtung Taupunkt Windchill Windben
10.10.2016 00:00 3,8 C 96 % 1024,3 hPa 0,0 l/m 0,2 km/h (0 Bft) SO 3,2 C 3,8 C 0,8 km/h (0 Bft)
10.10.2016 01:00 2,9 C 96 % 1024,2 hPa 0,0 l/m 0,1 km/h (0 Bft) SO 2,4 C 2,9 C 1,5 km/h (1 Bft)
10.10.2016 02:00 2,1 C 96 % 1024,3 hPa 0,0 l/m 0,4 km/h (0 Bft) SO 1,6 C 2,1 C 1,6 km/h (1 Bft)
10.10.2016 03:00 1,5 C 97 % 1024,4 hPa 0,0 l/m 0,4 km/h (0 Bft) SO 1,1 C 1,5 C 1,9 km/h (1 Bft)
10.10.2016 04:00 1,2 C 97 % 1024,1 hPa 0,0 l/m 0,4 km/h (0 Bft) SO 0,8 C 1,2 C 1,7 km/h (1 Bft)
10.10.2016 05:00 0,8 C 97 % 1023,9 hPa 0,0 l/m 0,4 km/h (0 Bft) SO 0,4 C 0,8 C 1,9 km/h (1 Bft)
10.10.2016 06:00 1,0 C 97 % 1023,8 hPa 0,0 l/m 0,3 km/h (0 Bft) SO 0,6 C 1,0 C 1,5 km/h (1 Bft)
10.10.2016 07:00 1,6 C 98 % 1023,7 hPa 0,0 l/m 0,2 km/h (0 Bft) SO 1,3 C 1,6 C 1,3 km/h (1 Bft)
10.10.2016 08:00 1,9 C 98 % 1024,0 hPa 0,0 l/m 0,5 km/h (0 Bft) W-SW 1,7 C 1,9 C 2,3 km/h (1 Bft)
10.10.2016 09:00 2,2 C 98 % 1024,2 hPa 0,0 l/m 0,8 km/h (0 Bft) W-NW 1,9 C 2,2 C 2,9 km/h (1 Bft)
10.10.2016 10:00 2,9 C 98 % 1024,1 hPa 0,0 l/m 1,0 km/h (0 Bft) NW 2,6 C 2,9 C 2,8 km/h (1 Bft)
10.10.2016 11:00 4,8 C 97 % 1023,7 hPa 0,0 l/m 1,4 km/h (1 Bft) NO 4,4 C 4,8 C 3,2 km/h (1 Bft)
10.10.2016 12:00 7,0 C 91 % 1023,3 hPa 0,0 l/m 2,7 km/h (1 Bft) NW 5,6 C 7,0 C 6,0 km/h (2 Bft)
10.10.2016 13:00 8,5 C 83 % 1022,6 hPa 0,0 l/m 2,5 km/h (1 Bft) W-NW 5,7 C 8,5 C 6,3 km/h (2 Bft)
10.10.2016 14:00 9,2 C 75 % 1021,9 hPa 0,0 l/m 3,6 km/h (1 Bft) NW 5,1 C 9,2 C 9,5 km/h (2 Bft)
10.10.2016 15:00 9,0 C 71 % 1021,6 hPa 0,0 l/m 2,9 km/h (1 Bft) W-NW 4,0 C 9,0 C 8,0 km/h (2 Bft)
10.10.2016 16:00 9,0 C 70 % 1021,3 hPa 0,0 l/m 1,5 km/h (1 Bft) NW 3,8 C 9,0 C 5,3 km/h (1 Bft)
10.10.2016 17:00 6,2 C 88 % 1021,0 hPa 1,0 l/m 0,3 km/h (0 Bft) NW 4,4 C 6,2 C 1,4 km/h (1 Bft)
10.10.2016 18:00 5,5 C 93 % 1020,8 hPa 0,0 l/m 0,1 km/h (0 Bft) NW 4,6 C 5,5 C 0,7 km/h (0 Bft)
10.10.2016 19:00 5,0 C 95 % 1020,9 hPa 0,0 l/m 0,0 km/h (0 Bft) NW 4,3 C 5,0 C 0,3 km/h (0 Bft)
10.10.2016 20:00 4,6 C 95 % 1020,9 hPa 0,0 l/m 0,1 km/h (0 Bft) NW 3,9 C 4,6 C 0,8 km/h (0 Bft)
10.10.2016 21:00 4,2 C 96 % 1021,0 hPa 0,0 l/m 0,0 km/h (0 Bft) NW 3,6 C 4,2 C 0,3 km/h (0 Bft)
10.10.2016 22:00 3,9 C 96 % 1020,9 hPa 0,0 l/m 0,0 km/h (0 Bft) NW 3,3 C 3,9 C 0,4 km/h (0 Bft)
10.10.2016 23:00 3,6 C 96 % 1020,5 hPa 0,0 l/m 0,0 km/h (0 Bft) NW 3,0 C 3,6 C 0,2 km/h (0 Bft)
11.10.2016 00:00 3,4 C 96 % 1020,2 hPa 0,0 l/m 0,0 km/h (0 Bft) NW 2,8 C 3,4 C 0,6 km/h (0 Bft)
11.10.2016 01:00 3,3 C 97 % 1019,8 hPa 0,0 l/m 0,0 km/h (0 Bft) NW 2,8 C 3,3 C 0,0 km/h (0 Bft)
11.10.2016 02:00 3,3 C 97 % 1019,5 hPa 0,0 l/m 0,0 km/h (0 Bft) NW 2,9 C 3,3 C 0,0 km/h (0 Bft)
11.10.2016 03:00 2,9 C 96 % 1019,1 hPa 0,0 l/m 0,0 km/h (0 Bft) NW 2,4 C 2,9 C 0,0 km/h (0 Bft)
11.10.2016 04:00 2,7 C 97 % 1018,8 hPa 0,0 l/m 0,0 km/h (0 Bft) NW 2,3 C 2,7 C 0,0 km/h (0 Bft)
11.10.2016 05:00 2,3 C 97 % 1018,5 hPa 0,0 l/m 0,0 km/h (0 Bft) NW 1,9 C 2,3 C 0,2 km/h (0 Bft)
11.10.2016 06:00 2,1 C 97 % 1018,4 hPa 0,3 l/m 0,0 km/h (0 Bft) NW 1,7 C 2,1 C 0,0 km/h (0 Bft)
11.10.2016 07:00 2,2 C 97 % 1018,4 hPa 0,0 l/m 0,0 km/h (0 Bft) NW 1,8 C 2,2 C 0,1 km/h (0 Bft)
11.10.2016 08:00 2,5 C 97 % 1018,5 hPa 0,0 l/m 0,0 km/h (0 Bft) N 2,1 C 2,5 C 0,3 km/h (0 Bft)
11.10.2016 09:00 3,6 C 98 % 1018,5 hPa 0,0 l/m 0,6 km/h (0 Bft) SO 3,3 C 3,6 C 1,5 km/h (1 Bft)
11.10.2016 10:00 5,2 C 94 % 1018,5 hPa 0,0 l/m 1,5 km/h (1 Bft) W-NW 4,3 C 5,2 C 3,0 km/h (1 Bft)
11.10.2016 11:00 7,5 C 84 % 1018,3 hPa 0,0 l/m 3,5 km/h (1 Bft) NW 5,0 C 7,5 C 7,4 km/h (2 Bft)
11.10.2016 12:00 9,2 C 75 % 1018,0 hPa 0,0 l/m 4,9 km/h (1 Bft) NW 5,0 C 9,2 C 11,8 km/h (2 Bft)
11.10.2016 13:00 9,3 C 72 % 1017,7 hPa 0,0 l/m 3,6 km/h (1 Bft) NW 4,4 C 9,3 C 9,5 km/h (2 Bft)
11.10.2016 14:00 9,7 C 70 % 1017,3 hPa 0,3 l/m 3,4 km/h (1 Bft) NW 4,4 C 9,7 C 10,6 km/h (2 Bft)
11.10.2016 15:00 8,2 C 74 % 1017,3 hPa 0,0 l/m 2,4 km/h (1 Bft) W 3,8 C 8,2 C 6,7 km/h (2 Bft)
11.10.2016 16:00 7,5 C 78 % 1017,4 hPa 0,0 l/m 1,5 km/h (1 Bft) W-NW 4,0 C 7,5 C 4,7 km/h (1 Bft)
11.10.2016 17:00 7,3 C 77 % 1017,4 hPa 0,0 l/m 1,8 km/h (1 Bft) W-NW 3,5 C 7,3 C 4,6 km/h (1 Bft)
11.10.2016 18:00 6,9 C 78 % 1017,5 hPa 0,0 l/m 1,6 km/h (1 Bft) NW 3,4 C 6,9 C 4,8 km/h (1 Bft)
11.10.2016 19:00 5,9 C 84 % 1018,0 hPa 0,0 l/m 0,7 km/h (0 Bft) NW 3,4 C 5,9 C 2,8 km/h (1 Bft)
11.10.2016 20:00 5,7 C 86 % 1018,4 hPa 0,0 l/m 0,7 km/h (0 Bft) S-SO 3,5 C 5,7 C 3,1 km/h (1 Bft)
11.10.2016 21:00 5,3 C 88 % 1018,4 hPa 0,0 l/m 0,1 km/h (0 Bft) S-SO 3,5 C 5,3 C 0,7 km/h (0 Bft)
11.10.2016 22:00 4,7 C 90 % 1018,4 hPa 0,0 l/m 0,0 km/h (0 Bft) S-SO 3,2 C 4,7 C 0,3 km/h (0 Bft)
11.10.2016 23:00 3,5 C 92 % 1018,1 hPa 0,0 l/m 0,0 km/h (0 Bft) S-SO 2,3 C 3,5 C 0,2 km/h (0 Bft)
12.10.2016 00:00 2,9 C 94 % 1018,2 hPa 0,0 l/m 0,0 km/h (0 Bft) S-SO 2,0 C 2,9 C 0,4 km/h (0 Bft)
12.10.2016 01:00 2,0 C 94 % 1018,0 hPa 0,0 l/m 0,0 km/h (0 Bft) S-SO 1,1 C 2,0 C 0,3 km/h (0 Bft)
12.10.2016 02:00 1,1 C 95 % 1018,0 hPa 0,0 l/m 0,0 km/h (0 Bft) S-SO 0,3 C 1,1 C 0,3 km/h (0 Bft)
12.10.2016 03:00 1,4 C 96 % 1017,8 hPa 0,0 l/m 0,0 km/h (0 Bft) S-SO 0,9 C 1,4 C 0,3 km/h (0 Bft)
12.10.2016 04:00 1,6 C 96 % 1017,5 hPa 0,0 l/m 0,3 km/h (0 Bft) S-SO 1,0 C 1,6 C 1,5 km/h (1 Bft)
12.10.2016 05:00 0,8 C 96 % 1017,4 hPa 0,0 l/m 0,1 km/h (0 Bft) N 0,1 C 0,8 C 0,7 km/h (0 Bft)
12.10.2016 06:00 0,2 C 95 % 1017,4 hPa 0,0 l/m 0,0 km/h (0 Bft) S -0,4 C 0,2 C 0,4 km/h (0 Bft)
12.10.2016 07:00 0,5 C 97 % 1017,5 hPa 0,0 l/m 0,1 km/h (0 Bft) S 0,1 C 0,5 C 0,9 km/h (0 Bft)
12.10.2016 08:00 1,5 C 97 % 1017,8 hPa 0,0 l/m 0,1 km/h (0 Bft) S 1,1 C 1,5 C 1,2 km/h (1 Bft)
12.10.2016 09:00 3,0 C 97 % 1017,9 hPa 0,0 l/m 0,6 km/h (0 Bft) S 2,5 C 3,0 C 2,7 km/h (1 Bft)
12.10.2016 10:00 4,1 C 94 % 1018,1 hPa 0,0 l/m 1,6 km/h (1 Bft) N-NW 3,3 C 4,1 C 4,7 km/h (1 Bft)
12.10.2016 11:00 6,1 C 85 % 1018,1 hPa 0,0 l/m 3,1 km/h (1 Bft) NW 3,7 C 6,1 C 6,4 km/h (2 Bft)
12.10.2016 12:00 8,4 C 74 % 1017,8 hPa 0,0 l/m 4,0 km/h (1 Bft) NW 4,0 C 8,3 C 7,8 km/h (2 Bft)
12.10.2016 13:00 8,9 C 66 % 1017,4 hPa 0,0 l/m 3,5 km/h (1 Bft) NW 2,9 C 8,9 C 6,7 km/h (2 Bft)
12.10.2016 14:00 9,5 C 61 % 1017,0 hPa 0,0 l/m 3,7 km/h (1 Bft) W 2,3 C 9,6 C 7,2 km/h (2 Bft)
12.10.2016 15:00 10,4 C 57 % 1016,4 hPa 0,0 l/m 4,0 km/h (1 Bft) W-NW 2,2 C 10,4 C 11,2 km/h (2 Bft)
12.10.2016 16:00 10,2 C 60 % 1016,1 hPa 0,0 l/m 3,5 km/h (1 Bft) S-SW 2,8 C 10,2 C 10,5 km/h (2 Bft)
12.10.2016 17:00 9,5 C 62 % 1016,0 hPa 0,0 l/m 2,0 km/h (1 Bft) NW 2,5 C 9,5 C 5,1 km/h (1 Bft)
12.10.2016 18:00 8,3 C 65 % 1016,1 hPa 0,0 l/m 1,0 km/h (0 Bft) SW 2,2 C 8,3 C 3,1 km/h (1 Bft)
12.10.2016 19:00 5,1 C 80 % 1016,5 hPa 0,0 l/m 0,3 km/h (0 Bft) W-SW 2,0 C 5,1 C 2,1 km/h (1 Bft)
12.10.2016 20:00 3,4 C 86 % 1016,7 hPa 0,0 l/m 0,4 km/h (0 Bft) NW 1,3 C 3,4 C 2,8 km/h (1 Bft)
12.10.2016 21:00 3,1 C 85 % 1016,9 hPa 0,0 l/m 0,4 km/h (0 Bft) SW 0,8 C 3,1 C 2,8 km/h (1 Bft)
12.10.2016 22:00 1,5 C 90 % 1016,9 hPa 0,0 l/m 0,1 km/h (0 Bft) SW 0,0 C 1,5 C 0,9 km/h (0 Bft)
12.10.2016 23:00 0,0 C 93 % 1016,9 hPa 0,0 l/m 0,0 km/h (0 Bft) SW -1,0 C 0,0 C 0,7 km/h (0 Bft)
13.10.2016 00:00 -0,7 C 94 % 1016,9 hPa 0,0 l/m 0,0 km/h (0 Bft) SW -1,6 C -0,7 C 0,4 km/h (0 Bft)
13.10.2016 01:00 -1,2 C 95 % 1016,7 hPa 0,0 l/m 0,1 km/h (0 Bft) SW -1,9 C -1,2 C 0,7 km/h (0 Bft)
13.10.2016 02:00 -1,3 C 95 % 1016,6 hPa 0,0 l/m 0,1 km/h (0 Bft) SW -2,0 C -1,3 C 1,1 km/h (0 Bft)
13.10.2016 03:00 -1,7 C 95 % 1016,0 hPa 0,0 l/m 0,2 km/h (0 Bft) SW -2,3 C -1,7 C 1,3 km/h (1 Bft)
13.10.2016 04:00 -1,5 C 96 % 1015,6 hPa 0,0 l/m 0,4 km/h (0 Bft) SW -2,0 C -1,5 C 2,1 km/h (1 Bft)
13.10.2016 05:00 -1,1 C 96 % 1015,3 hPa 0,0 l/m 0,3 km/h (0 Bft) SW -1,6 C -1,1 C 2,1 km/h (1 Bft)
13.10.2016 06:00 -0,5 C 96 % 1015,3 hPa 0,0 l/m 0,1 km/h (0 Bft) SW -1,0 C -0,5 C 1,6 km/h (1 Bft)
13.10.2016 07:00 -1,1 C 96 % 1014,9 hPa 0,0 l/m 0,0 km/h (0 Bft) SW -1,7 C -1,1 C 0,4 km/h (0 Bft)
13.10.2016 08:00 -1,4 C 96 % 1014,8 hPa 0,0 l/m 0,0 km/h (0 Bft) SW -1,9 C -1,4 C 0,8 km/h (0 Bft)
13.10.2016 09:00 0,9 C 97 % 1014,9 hPa 0,3 l/m 0,9 km/h (0 Bft) SW 0,4 C 0,9 C 3,1 km/h (1 Bft)
13.10.2016 10:00 5,0 C 88 % 1014,6 hPa 0,0 l/m 2,8 km/h (1 Bft) W 3,2 C 5,0 C 8,0 km/h (2 Bft)
13.10.2016 11:00 6,0 C 82 % 1013,7 hPa 0,0 l/m 3,4 km/h (1 Bft) S-SW 3,1 C 6,0 C 7,3 km/h (2 Bft)
13.10.2016 12:00 7,0 C 78 % 1013,4 hPa 0,0 l/m 4,1 km/h (1 Bft) W-NW 3,4 C 7,0 C 9,5 km/h (2 Bft)
13.10.2016 13:00 8,0 C 74 % 1012,6 hPa 0,0 l/m 3,6 km/h (1 Bft) W 3,6 C 8,0 C 10,3 km/h (2 Bft)
13.10.2016 14:00 8,4 C 71 % 1012,2 hPa 0,0 l/m 2,9 km/h (1 Bft) W-NW 3,5 C 8,4 C 8,0 km/h (2 Bft)
13.10.2016 15:00 9,0 C 70 % 1011,9 hPa 0,0 l/m 4,0 km/h (1 Bft) NW 3,7 C 8,9 C 11,8 km/h (2 Bft)
13.10.2016 16:00 9,0 C 70 % 1011,5 hPa 0,0 l/m 3,4 km/h (1 Bft) S-SW 3,8 C 9,0 C 9,0 km/h (2 Bft)
13.10.2016 17:00 8,5 C 73 % 1011,5 hPa 0,0 l/m 2,5 km/h (1 Bft) W-SW 3,9 C 8,5 C 6,0 km/h (2 Bft)
13.10.2016 18:00 7,7 C 75 % 1011,4 hPa 0,0 l/m 2,1 km/h (1 Bft) W 3,7 C 7,7 C 5,3 km/h (1 Bft)
13.10.2016 19:00 5,6 C 83 % 1011,7 hPa 0,0 l/m 0,3 km/h (0 Bft) W-SW 3,0 C 5,6 C 1,7 km/h (1 Bft)
13.10.2016 20:00 4,1 C 90 % 1011,7 hPa 0,0 l/m 0,1 km/h (0 Bft) W-SW 2,6 C 4,1 C 1,2 km/h (1 Bft)
13.10.2016 21:00 3,3 C 91 % 1011,8 hPa 0,0 l/m 0,0 km/h (0 Bft) W-SW 2,0 C 3,3 C 0,1 km/h (0 Bft)
13.10.2016 22:00 2,3 C 93 % 1011,7 hPa 0,0 l/m 0,0 km/h (0 Bft) W-SW 1,2 C 2,3 C 0,8 km/h (0 Bft)
13.10.2016 23:00 1,4 C 94 % 1011,5 hPa 0,0 l/m 0,0 km/h (0 Bft) W-SW 0,5 C 1,4 C 0,2 km/h (0 Bft)
14.10.2016 00:00 1,0 C 95 % 1011,3 hPa 0,0 l/m 0,0 km/h (0 Bft) W-SW 0,3 C 1,0 C 0,1 km/h (0 Bft)
14.10.2016 01:00 0,6 C 95 % 1011,2 hPa 0,0 l/m 0,0 km/h (0 Bft) W-SW -0,1 C 0,6 C 0,4 km/h (0 Bft)
14.10.2016 02:00 0,3 C 96 % 1010,9 hPa 0,0 l/m 0,1 km/h (0 Bft) W-SW -0,4 C 0,3 C 1,2 km/h (1 Bft)
14.10.2016 03:00 0,2 C 96 % 1010,4 hPa 0,0 l/m 0,3 km/h (0 Bft) W-SW -0,4 C 0,2 C 1,6 km/h (1 Bft)
14.10.2016 04:00 0,5 C 96 % 1009,7 hPa 0,0 l/m 0,4 km/h (0 Bft) W-SW 0,0 C 0,5 C 2,0 km/h (1 Bft)
14.10.2016 05:00 1,1 C 96 % 1009,1 hPa 0,0 l/m 0,1 km/h (0 Bft) W-SW 0,6 C 1,1 C 0,7 km/h (0 Bft)
14.10.2016 06:00 1,3 C 96 % 1008,9 hPa 0,0 l/m 0,4 km/h (0 Bft) W-SW 0,8 C 1,3 C 1,8 km/h (1 Bft)
14.10.2016 07:00 1,5 C 96 % 1008,6 hPa 0,0 l/m 0,4 km/h (0 Bft) NW 1,0 C 1,5 C 2,0 km/h (1 Bft)
14.10.2016 08:00 1,4 C 97 % 1008,8 hPa 0,0 l/m 0,1 km/h (0 Bft) NW 0,9 C 1,4 C 1,2 km/h (1 Bft)
14.10.2016 09:00 2,7 C 97 % 1009,1 hPa 0,0 l/m 0,5 km/h (0 Bft) NW 2,3 C 2,7 C 1,9 km/h (1 Bft)
14.10.2016 10:00 5,1 C 94 % 1008,3 hPa 0,0 l/m 0,4 km/h (0 Bft) NW 4,3 C 5,1 C 2,1 km/h (1 Bft)
14.10.2016 11:00 7,4 C 89 % 1007,8 hPa 0,0 l/m 1,4 km/h (1 Bft) W-SW 5,6 C 7,4 C 2,9 km/h (1 Bft)
14.10.2016 12:00 9,1 C 82 % 1007,1 hPa 0,0 l/m 2,4 km/h (1 Bft) NW 6,1 C 9,1 C 5,8 km/h (2 Bft)
14.10.2016 13:00 10,3 C 76 % 1006,8 hPa 0,0 l/m 2,6 km/h (1 Bft) NW 6,4 C 10,3 C 5,9 km/h (2 Bft)
14.10.2016 14:00 11,2 C 74 % 1006,4 hPa 0,0 l/m 1,9 km/h (1 Bft) NW 6,8 C 11,2 C 4,8 km/h (1 Bft)
14.10.2016 15:00 12,2 C 72 % 1005,7 hPa 0,0 l/m 2,6 km/h (1 Bft) NW 7,2 C 12,2 C 6,5 km/h (2 Bft)
14.10.2016 16:00 11,2 C 76 % 1005,2 hPa 0,0 l/m 1,7 km/h (1 Bft) N 7,1 C 11,2 C 4,8 km/h (1 Bft)
14.10.2016 17:00 10,3 C 80 % 1005,4 hPa 0,0 l/m 0,8 km/h (0 Bft) NW 7,0 C 10,3 C 2,1 km/h (1 Bft)
14.10.2016 18:00 9,6 C 83 % 1004,7 hPa 0,0 l/m 0,6 km/h (0 Bft) SW 6,8 C 9,6 C 2,6 km/h (1 Bft)
14.10.2016 19:00 8,5 C 88 % 1005,0 hPa 0,0 l/m 0,2 km/h (0 Bft) S 6,5 C 8,5 C 1,9 km/h (1 Bft)
14.10.2016 20:00 7,3 C 91 % 1005,7 hPa 0,0 l/m 0,4 km/h (0 Bft) S 6,0 C 7,3 C 2,0 km/h (1 Bft)
14.10.2016 21:00 7,0 C 93 % 1006,4 hPa 0,0 l/m 0,6 km/h (0 Bft) O-SO 5,9 C 7,0 C 2,3 km/h (1 Bft)
14.10.2016 22:00 6,7 C 93 % 1006,6 hPa 0,0 l/m 0,3 km/h (0 Bft) SO 5,7 C 6,7 C 1,7 km/h (1 Bft)
14.10.2016 23:00 5,6 C 94 % 1007,0 hPa 0,0 l/m 0,3 km/h (0 Bft) SO 4,8 C 5,6 C 1,4 km/h (1 Bft)
15.10.2016 00:00 4,9 C 95 % 1007,6 hPa 0,0 l/m 0,1 km/h (0 Bft) SO 4,1 C 4,9 C 1,0 km/h (0 Bft)
15.10.2016 01:00 4,3 C 96 % 1007,8 hPa 0,0 l/m 0,2 km/h (0 Bft) SO 3,7 C 4,3 C 1,3 km/h (1 Bft)
15.10.2016 02:00 3,7 C 96 % 1008,4 hPa 0,0 l/m 0,1 km/h (0 Bft) SO 3,0 C 3,7 C 0,4 km/h (0 Bft)
15.10.2016 03:00 3,2 C 96 % 1008,7 hPa 0,0 l/m 0,0 km/h (0 Bft) SO 2,7 C 3,2 C 0,9 km/h (0 Bft)
15.10.2016 04:00 4,0 C 97 % 1008,9 hPa 0,0 l/m 1,0 km/h (0 Bft) NO 3,6 C 4,0 C 4,1 km/h (1 Bft)
15.10.2016 05:00 9,5 C 92 % 1009,7 hPa 0,0 l/m 3,7 km/h (1 Bft) NO 8,3 C 9,5 C 8,9 km/h (2 Bft)
15.10.2016 06:00 8,3 C 90 % 1010,2 hPa 0,0 l/m 0,8 km/h (0 Bft) N-NO 6,7 C 8,3 C 2,8 km/h (1 Bft)
15.10.2016 07:00 8,9 C 93 % 1011,1 hPa 0,0 l/m 3,6 km/h (1 Bft) O 7,8 C 8,9 C 10,9 km/h (2 Bft)
15.10.2016 08:00 10,3 C 87 % 1011,9 hPa 0,0 l/m 6,7 km/h (2 Bft) O 8,2 C 9,8 C 17,0 km/h (3 Bft)
15.10.2016 09:00 10,5 C 85 % 1013,0 hPa 0,0 l/m 2,8 km/h (1 Bft) O-NO 8,1 C 10,5 C 8,6 km/h (2 Bft)
15.10.2016 10:00 11,8 C 81 % 1013,9 hPa 0,0 l/m 3,2 km/h (1 Bft) O-NO 8,6 C 11,8 C 8,4 km/h (2 Bft)
15.10.2016 11:00 14,0 C 72 % 1014,4 hPa 0,0 l/m 5,3 km/h (1 Bft) O 9,1 C 14,0 C 12,1 km/h (2 Bft)
15.10.2016 12:00 15,0 C 68 % 1014,5 hPa 0,0 l/m 4,4 km/h (1 Bft) O-NO 9,0 C 14,9 C 7,9 km/h (2 Bft)
15.10.2016 13:00 16,5 C 61 % 1014,6 hPa 0,0 l/m 5,3 km/h (1 Bft) NO 8,9 C 16,3 C 9,7 km/h (2 Bft)
15.10.2016 14:00 16,0 C 61 % 1014,8 hPa 0,0 l/m 5,4 km/h (1 Bft) O-NO 8,5 C 15,8 C 9,9 km/h (2 Bft)
15.10.2016 15:00 16,8 C 58 % 1015,0 hPa 0,0 l/m 6,0 km/h (2 Bft) O-NO 8,4 C 16,5 C 10,2 km/h (2 Bft)
15.10.2016 16:00 17,1 C 56 % 1015,3 hPa 0,0 l/m 4,1 km/h (1 Bft) O-NO 8,4 C 17,1 C 7,5 km/h (2 Bft)
15.10.2016 17:00 16,6 C 57 % 1015,8 hPa 0,0 l/m 2,3 km/h (1 Bft) O 8,2 C 16,6 C 4,3 km/h (1 Bft)
15.10.2016 18:00 13,0 C 71 % 1016,5 hPa 0,0 l/m 0,1 km/h (0 Bft) N 8,0 C 13,0 C 0,6 km/h (0 Bft)
15.10.2016 19:00 9,1 C 84 % 1017,3 hPa 0,0 l/m 0,2 km/h (0 Bft) O 6,6 C 9,1 C 1,2 km/h (1 Bft)
15.10.2016 20:00 6,9 C 89 % 1017,9 hPa 0,0 l/m 0,1 km/h (0 Bft) O 5,3 C 6,9 C 1,1 km/h (0 Bft)
15.10.2016 21:00 5,7 C 92 % 1018,5 hPa 0,0 l/m 0,3 km/h (0 Bft) O 4,5 C 5,7 C 1,5 km/h (1 Bft)
15.10.2016 22:00 4,7 C 93 % 1019,1 hPa 0,0 l/m 0,0 km/h (0 Bft) O 3,7 C 4,7 C 0,4 km/h (0 Bft)
15.10.2016 23:00 3,8 C 94 % 1019,4 hPa 0,0 l/m 0,0 km/h (0 Bft) O 3,0 C 3,8 C 0,2 km/h (0 Bft)
16.10.2016 00:00 3,3 C 95 % 1019,6 hPa 0,0 l/m 0,0 km/h (0 Bft) O 2,6 C 3,3 C 0,1 km/h (0 Bft)
16.10.2016 01:00 2,6 C 95 % 1019,8 hPa 0,0 l/m 0,0 km/h (0 Bft) O 1,9 C 2,6 C 0,3 km/h (0 Bft)
16.10.2016 02:00 2,2 C 96 % 1020,1 hPa 0,0 l/m 0,0 km/h (0 Bft) O 1,5 C 2,2 C 0,0 km/h (0 Bft)
16.10.2016 03:00 1,7 C 96 % 1020,4 hPa 0,0 l/m 0,0 km/h (0 Bft) O 1,1 C 1,7 C 0,1 km/h (0 Bft)
16.10.2016 04:00 1,4 C 96 % 1020,3 hPa 0,0 l/m 0,0 km/h (0 Bft) O 0,9 C 1,4 C 0,1 km/h (0 Bft)
16.10.2016 05:00 0,8 C 96 % 1020,6 hPa 0,0 l/m 0,0 km/h (0 Bft) O 0,3 C 0,8 C 0,0 km/h (0 Bft)
16.10.2016 06:00 0,7 C 96 % 1020,8 hPa 0,0 l/m 0,0 km/h (0 Bft) O 0,1 C 0,7 C 0,0 km/h (0 Bft)
16.10.2016 07:00 0,4 C 96 % 1021,1 hPa 0,0 l/m 0,0 km/h (0 Bft) O -0,1 C 0,4 C 0,1 km/h (0 Bft)
16.10.2016 08:00 0,5 C 97 % 1021,6 hPa 0,0 l/m 0,1 km/h (0 Bft) O 0,0 C 0,5 C 0,4 km/h (0 Bft)
16.10.2016 09:00 3,8 C 96 % 1021,9 hPa 0,0 l/m 0,3 km/h (0 Bft) O 3,3 C 3,8 C 1,5 km/h (1 Bft)
16.10.2016 10:00 8,7 C 87 % 1022,0 hPa 0,0 l/m 1,3 km/h (1 Bft) O 6,6 C 8,7 C 2,7 km/h (1 Bft)
16.10.2016 11:00 13,9 C 79 % 1021,9 hPa 0,0 l/m 2,1 km/h (1 Bft) NW 10,3 C 13,9 C 3,9 km/h (1 Bft)
16.10.2016 12:00 16,3 C 69 % 1021,7 hPa 0,0 l/m 3,0 km/h (1 Bft) N 10,6 C 16,3 C 6,5 km/h (2 Bft)
16.10.2016 13:00 18,1 C 59 % 1021,3 hPa 0,0 l/m 3,0 km/h (1 Bft) NO 9,9 C 18,1 C 7,0 km/h (2 Bft)
16.10.2016 14:00 19,0 C 57 % 1020,9 hPa 0,0 l/m 2,6 km/h (1 Bft) W-NW 10,2 C 19,0 C 6,0 km/h (2 Bft)
16.10.2016 15:00 19,7 C 53 % 1020,8 hPa 0,0 l/m 2,1 km/h (1 Bft) W-NW 9,9 C 19,7 C 4,9 km/h (1 Bft)
16.10.2016 16:00 19,7 C 50 % 1020,6 hPa 0,0 l/m 1,7 km/h (1 Bft) W-NW 9,0 C 19,7 C 4,3 km/h (1 Bft)
16.10.2016 17:00 17,2 C 64 % 1020,8 hPa 0,0 l/m 0,2 km/h (0 Bft) W-NW 10,3 C 17,2 C 1,1 km/h (1 Bft)
16.10.2016 18:00 14,0 C 74 % 1021,1 hPa 0,0 l/m 0,0 km/h (0 Bft) W-NW 9,4 C 14,0 C 0,1 km/h (0 Bft)
16.10.2016 19:00 10,4 C 85 % 1021,5 hPa 0,0 l/m 0,2 km/h (0 Bft) W-NW 8,0 C 10,4 C 0,9 km/h (0 Bft)
16.10.2016 20:00 8,8 C 90 % 1021,9 hPa 0,0 l/m 0,2 km/h (0 Bft) S-SO 7,1 C 8,8 C 0,8 km/h (0 Bft)
16.10.2016 21:00 7,6 C 92 % 1022,2 hPa 0,0 l/m 0,0 km/h (0 Bft) S-SO 6,4 C 7,6 C 0,5 km/h (0 Bft)
16.10.2016 22:00 6,7 C 94 % 1022,6 hPa 0,0 l/m 0,1 km/h (0 Bft) S-SO 5,7 C 6,7 C 0,5 km/h (0 Bft)
16.10.2016 23:00 5,9 C 95 % 1023,0 hPa 0,0 l/m 0,3 km/h (0 Bft) S-SO 5,1 C 5,9 C 1,1 km/h (1 Bft)
Min-Datum _ 13.10.16 16.10.16 14.10.16 - 16.10.16 - 13.10.16 13.10.16 16.10.16
_ Min-Zeit 03:30 16:15 18:25 - 23:00 - 03:20 03:30 23:05
Minimum _ -1,8 C 48 % 1004,4 hPa - 0,0 km/h (0 Bft) - -2,5 C -1,8 C 0,0 km/h (0 Bft)
Max-Datum _ 16.10.16 16.10.16 10.10.16 10.10.16 15.10.16 - 16.10.16 16.10.16 15.10.16
_ Max-Zeit 15:40 09:05 03:25 17:05 15:10 - 11:58 15:40 08:35
Maximum _ 20,2 C 98 % 1024,6 hPa 1,0 l/m 11,3 km/h
O-NO (2 Bft)
- 11,1 C 20,2 C 24,1 km/h
N-NO (4 Bft)
Durchschnitt _ 5,8 C 87 % 1016,3 hPa #1,8 l/m 1,2 km/h (1 Bft) NW 3,5 C 5,8 C 3,2 km/h (1 Bft)